createdAt,value
2023-03-18T00:01:04.012Z,1.98
2023-03-18T00:03:32.486Z,2.10
2023-03-18T00:06:08.731Z,2.55
2023-03-18T00:08:35.812Z,2.08
2023-03-18T00:11:05.479Z,2.35
2023-03-18T00:13:33.729Z,2.30
2023-03-18T00:16:02.357Z,2.15
2023-03-18T00:18:29.982Z,2.38
2023-03-18T00:20:58.707Z,2.15
2023-03-18T00:23:26.521Z,2.53
2023-03-18T00:25:54.606Z,2.20
2023-03-18T00:28:21.706Z,2.28
2023-03-18T00:30:49.558Z,1.92
2023-03-18T00:33:17.766Z,2.05
2023-03-18T00:35:45.597Z,2.05
2023-03-18T00:38:20.740Z,2.30
2023-03-18T00:41:01.587Z,2.25
2023-03-18T00:43:33.479Z,2.15
2023-03-18T00:46:00.924Z,2.30
2023-03-18T00:48:28.037Z,2.38
2023-03-18T00:50:55.908Z,2.33
2023-03-18T00:53:25.043Z,3.50
2023-03-18T00:55:53.067Z,3.22
2023-03-18T00:58:20.150Z,3.08
2023-03-18T01:00:47.294Z,3.47
2023-03-18T01:03:14.810Z,3.22
2023-03-18T01:05:42.386Z,3.33
2023-03-18T01:08:09.457Z,2.78
2023-03-18T01:10:36.615Z,2.75
2023-03-18T01:13:03.978Z,3.17
2023-03-18T01:15:30.991Z,3.33
2023-03-18T01:17:58.452Z,3.42
2023-03-18T01:20:25.646Z,3.40
2023-03-18T01:22:52.972Z,3.10
2023-03-18T01:25:20.328Z,3.53
2023-03-18T01:27:47.452Z,3.67
2023-03-18T01:30:14.792Z,3.45
2023-03-18T01:32:43.861Z,3.13
2023-03-18T01:35:12.328Z,3.63
2023-03-18T01:37:40.091Z,4.00
2023-03-18T01:40:08.158Z,4.05
2023-03-18T01:42:35.784Z,4.03
2023-03-18T01:45:16.108Z,4.50
2023-03-18T01:47:44.783Z,5.18
2023-03-18T01:50:13.091Z,4.47
2023-03-18T01:52:40.572Z,3.90
2023-03-18T01:55:10.420Z,4.07
2023-03-18T01:57:37.577Z,4.40
2023-03-18T02:00:05.720Z,4.68
2023-03-18T02:02:33.911Z,4.07
2023-03-18T02:05:03.885Z,5.05
2023-03-18T02:07:32.773Z,5.25
2023-03-18T02:10:03.598Z,5.25
2023-03-18T02:12:35.491Z,4.82
2023-03-18T02:15:05.992Z,4.93
2023-03-18T02:17:35.167Z,5.50
2023-03-18T02:20:02.217Z,5.20
2023-03-18T02:22:39.595Z,5.50
2023-03-18T02:25:25.183Z,5.40
2023-03-18T02:27:54.948Z,5.93
2023-03-18T02:30:24.413Z,5.88
2023-03-18T02:32:52.338Z,6.72
2023-03-18T02:35:20.641Z,6.90
2023-03-18T02:37:47.848Z,6.68
2023-03-18T02:40:19.592Z,6.28
2023-03-18T02:42:47.688Z,7.22
2023-03-18T02:45:24.567Z,6.60
2023-03-18T02:47:52.738Z,6.68
2023-03-18T02:50:20.405Z,6.53
2023-03-18T02:52:47.522Z,6.95
2023-03-18T02:55:15.452Z,6.60
2023-03-18T02:57:42.524Z,6.70
2023-03-18T03:00:11.004Z,7.38
2023-03-18T03:02:38.159Z,6.82
2023-03-18T03:05:05.418Z,7.22
2023-03-18T03:07:32.522Z,6.70
2023-03-18T03:09:59.642Z,7.35
2023-03-18T03:12:26.660Z,7.18
2023-03-18T03:14:53.735Z,8.05
2023-03-18T03:17:23.104Z,6.75
2023-03-18T03:19:50.659Z,7.10
2023-03-18T03:22:18.510Z,6.65
2023-03-18T03:24:54.392Z,6.10
2023-03-18T03:27:21.752Z,6.88
2023-03-18T03:29:49.636Z,7.28
2023-03-18T03:32:17.164Z,6.68
2023-03-18T03:34:44.256Z,6.65
2023-03-18T03:37:11.407Z,6.75
2023-03-18T03:39:38.755Z,6.53
2023-03-18T03:42:05.854Z,6.18
2023-03-18T03:44:32.919Z,6.57
2023-03-18T03:46:59.955Z,6.70
2023-03-18T03:49:27.204Z,6.03
2023-03-18T03:51:54.206Z,6.03
2023-03-18T03:54:21.265Z,6.05
2023-03-18T03:56:51.364Z,6.53
2023-03-18T03:59:18.793Z,6.00
2023-03-18T04:01:46.284Z,6.82
2023-03-18T04:04:13.473Z,6.63
2023-03-18T04:06:40.622Z,7.18
2023-03-18T04:09:07.700Z,6.68
2023-03-18T04:11:34.782Z,6.80
2023-03-18T04:14:01.910Z,7.05
2023-03-18T04:16:29.072Z,6.45
2023-03-18T04:18:56.143Z,7.25
2023-03-18T04:21:23.343Z,6.55
2023-03-18T04:23:50.432Z,6.82
2023-03-18T04:26:17.486Z,7.30
2023-03-18T04:28:44.585Z,7.15
2023-03-18T04:31:11.806Z,6.47
2023-03-18T04:33:39.793Z,6.93
2023-03-18T04:36:07.119Z,6.75
2023-03-18T04:38:34.293Z,6.97
2023-03-18T04:41:01.427Z,7.28
2023-03-18T04:43:28.510Z,7.18
2023-03-18T04:45:55.605Z,7.68
2023-03-18T04:48:23.443Z,7.75
2023-03-18T04:50:50.980Z,6.70
2023-03-18T04:53:18.083Z,7.95
2023-03-18T04:55:45.155Z,7.93
2023-03-18T04:58:12.268Z,7.28
2023-03-18T05:00:39.353Z,7.45
2023-03-18T05:03:07.352Z,7.22
2023-03-18T05:05:37.333Z,7.78
2023-03-18T05:08:05.712Z,7.80
2023-03-18T05:10:33.025Z,7.35
2023-03-18T05:13:00.610Z,7.57
2023-03-18T05:15:27.742Z,7.70
2023-03-18T05:17:54.806Z,7.32
2023-03-18T05:20:22.489Z,7.95
2023-03-18T05:22:49.624Z,7.57
2023-03-18T05:25:17.007Z,7.10
2023-03-18T05:27:44.144Z,6.63
2023-03-18T05:30:12.289Z,7.72
2023-03-18T05:32:40.491Z,7.55
2023-03-18T05:35:08.316Z,7.07
2023-03-18T05:37:35.962Z,7.47
2023-03-18T05:40:04.142Z,7.55
2023-03-18T05:42:31.912Z,6.85
2023-03-18T05:44:59.223Z,6.65
2023-03-18T05:47:26.244Z,6.35
2023-03-18T05:49:53.299Z,6.22
2023-03-18T05:52:20.579Z,6.35
2023-03-18T05:54:48.239Z,7.00
2023-03-18T05:57:15.730Z,7.22
2023-03-18T05:59:43.803Z,7.40
2023-03-18T06:02:11.720Z,6.55
2023-03-18T06:04:40.117Z,6.43
2023-03-18T06:07:07.180Z,6.47
2023-03-18T06:09:34.376Z,7.05
2023-03-18T06:12:01.507Z,6.30
2023-03-18T06:14:29.466Z,7.22
2023-03-18T06:16:57.016Z,6.30
2023-03-18T06:19:25.269Z,7.55
2023-03-18T06:21:53.122Z,6.78
2023-03-18T06:24:21.088Z,5.95
2023-03-18T06:26:48.140Z,5.78
2023-03-18T06:29:15.195Z,5.75
2023-03-18T06:31:42.203Z,5.82
2023-03-18T06:34:09.318Z,6.70
2023-03-18T06:36:36.666Z,5.50
2023-03-18T06:39:04.200Z,5.93
2023-03-18T06:41:31.342Z,5.93
2023-03-18T06:43:58.456Z,5.82
2023-03-18T06:46:25.853Z,5.97
2023-03-18T06:48:54.334Z,6.35
2023-03-18T06:51:21.429Z,6.80
2023-03-18T06:53:48.578Z,6.22
2023-03-18T06:56:16.504Z,5.97
2023-03-18T06:58:43.712Z,6.18
2023-03-18T07:01:12.520Z,5.63
2023-03-18T07:03:39.796Z,5.68
2023-03-18T07:06:07.774Z,5.63
2023-03-18T07:08:36.183Z,5.82
2023-03-18T07:11:03.990Z,6.45
2023-03-18T07:13:31.284Z,6.97
2023-03-18T07:15:58.974Z,5.82
2023-03-18T07:18:26.062Z,7.68
2023-03-18T07:20:53.231Z,7.40
2023-03-18T07:23:20.696Z,7.50
2023-03-18T07:25:47.835Z,7.07
2023-03-18T07:28:15.444Z,7.60
2023-03-18T07:30:42.989Z,7.53
2023-03-18T07:33:10.134Z,8.02
2023-03-18T07:35:40.849Z,7.55
2023-03-18T07:38:12.452Z,8.00
2023-03-18T07:40:39.572Z,8.80
2023-03-18T07:43:07.016Z,8.48
2023-03-18T07:45:34.840Z,9.02
2023-03-18T07:48:01.926Z,8.02
2023-03-18T07:50:29.139Z,8.00
2023-03-18T07:52:57.014Z,9.00
2023-03-18T07:55:24.377Z,9.43
2023-03-18T07:57:51.558Z,9.23
2023-03-18T08:00:18.988Z,8.18
2023-03-18T08:02:46.017Z,7.15
2023-03-18T08:05:14.357Z,7.70
2023-03-18T08:07:41.645Z,7.95
2023-03-18T08:10:09.149Z,7.32
2023-03-18T08:12:51.629Z,7.20
2023-03-18T08:15:19.985Z,8.02
2023-03-18T08:17:47.290Z,7.65
2023-03-18T08:20:15.205Z,7.43
2023-03-18T08:22:42.334Z,7.25
2023-03-18T08:25:09.749Z,7.75
2023-03-18T08:27:36.845Z,7.50
2023-03-18T08:30:04.287Z,7.25
2023-03-18T08:32:32.480Z,8.20
2023-03-18T08:34:59.623Z,8.30
2023-03-18T08:37:26.686Z,8.57
2023-03-18T08:39:54.507Z,7.40
2023-03-18T08:42:21.597Z,7.10
2023-03-18T08:44:48.838Z,7.28
2023-03-18T08:47:15.906Z,6.57
2023-03-18T08:49:43.013Z,6.30
2023-03-18T08:52:10.546Z,6.82
2023-03-18T08:54:37.606Z,6.57
2023-03-18T08:57:04.932Z,6.03
2023-03-18T08:59:32.042Z,6.47
2023-03-18T09:01:59.122Z,6.25
2023-03-18T09:04:26.350Z,5.95
2023-03-18T09:06:53.443Z,6.70
2023-03-18T09:09:21.544Z,6.28
2023-03-18T09:11:51.553Z,6.32
2023-03-18T09:14:18.575Z,6.20
2023-03-18T09:16:46.119Z,5.32
2023-03-18T09:19:13.209Z,6.22
2023-03-18T09:21:40.376Z,6.03
2023-03-18T09:24:07.664Z,6.75
2023-03-18T09:26:34.693Z,7.57
2023-03-18T09:29:01.745Z,6.82
2023-03-18T09:31:28.825Z,7.03
2023-03-18T09:33:56.110Z,6.75
2023-03-18T09:36:23.322Z,6.15
2023-03-18T09:38:50.495Z,5.93
2023-03-18T09:41:36.420Z,5.88
2023-03-18T09:44:17.704Z,6.00
2023-03-18T09:46:49.382Z,5.57
2023-03-18T09:49:16.677Z,4.63
2023-03-18T09:51:46.126Z,5.57
2023-03-18T09:54:16.593Z,5.07
2023-03-18T09:56:44.182Z,5.00
2023-03-18T09:59:17.117Z,5.40
2023-03-18T10:01:46.943Z,5.40
2023-03-18T10:04:42.815Z,5.47
2023-03-18T10:07:14.994Z,6.15
2023-03-18T10:09:52.161Z,5.25
2023-03-18T10:12:25.073Z,5.78
2023-03-18T10:14:58.693Z,5.10
2023-03-18T10:17:35.477Z,4.68
2023-03-18T10:20:04.872Z,5.40
2023-03-18T10:22:54.989Z,5.78
2023-03-18T10:25:22.084Z,5.55
2023-03-18T10:28:08.407Z,4.88
2023-03-18T10:31:04.965Z,5.78
2023-03-18T10:33:34.878Z,5.68
2023-03-18T10:36:02.081Z,5.45
2023-03-18T10:38:33.304Z,5.85
2023-03-18T10:41:01.196Z,6.93
2023-03-18T10:43:30.501Z,5.32
2023-03-18T10:46:06.018Z,5.63
2023-03-18T10:48:35.081Z,5.97
2023-03-18T10:51:13.654Z,4.75
2023-03-18T10:53:47.909Z,5.40
2023-03-18T10:56:15.619Z,5.13
2023-03-18T10:58:43.666Z,5.15
2023-03-18T11:01:12.478Z,4.65
2023-03-18T11:03:44.625Z,5.15
2023-03-18T11:06:31.509Z,4.50
2023-03-18T11:09:06.285Z,4.15
2023-03-18T11:11:34.814Z,4.30
2023-03-18T11:14:03.381Z,4.47
2023-03-18T11:16:33.720Z,4.18
2023-03-18T11:19:06.842Z,4.35
2023-03-18T11:21:34.572Z,3.50
2023-03-18T11:24:10.661Z,4.25
2023-03-18T11:27:07.188Z,4.03
2023-03-18T11:29:34.929Z,3.83
2023-03-18T11:32:02.695Z,3.80
2023-03-18T11:34:31.228Z,4.10
2023-03-18T11:37:05.759Z,4.07
2023-03-18T11:39:36.674Z,4.50
2023-03-18T11:42:06.138Z,3.97
2023-03-18T11:44:33.740Z,4.35
2023-03-18T11:47:06.133Z,4.47
2023-03-18T11:49:34.295Z,4.47
2023-03-18T11:52:15.378Z,4.93
2023-03-18T11:54:49.004Z,4.22
2023-03-18T11:57:23.161Z,4.22
2023-03-18T11:59:59.104Z,3.50
2023-03-18T12:02:45.187Z,4.15
2023-03-18T12:05:33.055Z,4.15
2023-03-18T12:08:01.436Z,3.92
2023-03-18T12:10:29.636Z,4.75
2023-03-18T12:13:05.504Z,4.95
2023-03-18T12:15:38.612Z,4.90
2023-03-18T12:18:24.293Z,5.05
2023-03-18T12:20:52.512Z,4.78
2023-03-18T12:23:25.692Z,4.63
2023-03-18T12:25:58.170Z,4.07
2023-03-18T12:28:32.885Z,4.65
2023-03-18T12:31:14.147Z,3.95
2023-03-18T12:33:56.315Z,3.50
2023-03-18T12:36:27.522Z,3.33
2023-03-18T12:38:54.522Z,3.55
2023-03-18T12:41:44.035Z,3.45
2023-03-18T12:44:24.744Z,3.35
2023-03-18T12:46:58.047Z,3.80
2023-03-18T12:50:00.912Z,3.05
2023-03-18T12:52:27.956Z,2.75
2023-03-18T12:55:01.125Z,2.80
2023-03-18T12:57:37.965Z,2.47
2023-03-18T13:00:18.624Z,2.50
2023-03-18T13:02:56.138Z,2.42
2023-03-18T13:05:36.764Z,2.38
2023-03-18T13:08:03.902Z,2.88
2023-03-18T13:10:34.378Z,3.00
2023-03-18T13:13:04.003Z,2.58
2023-03-18T13:15:36.952Z,2.10
2023-03-18T13:18:14.385Z,2.10
2023-03-18T13:20:44.653Z,2.50
2023-03-18T13:23:24.778Z,2.50
2023-03-18T13:26:01.868Z,2.50
2023-03-18T13:28:41.714Z,2.08
2023-03-18T13:31:11.942Z,2.38
2023-03-18T13:33:57.633Z,2.35
2023-03-18T13:36:33.570Z,2.28
2023-03-18T13:39:18.076Z,2.20
2023-03-18T13:42:11.779Z,2.22
2023-03-18T13:45:01.896Z,2.20
2023-03-18T13:47:33.258Z,2.10
2023-03-18T13:50:01.183Z,1.88
2023-03-18T13:52:42.764Z,2.15
2023-03-18T13:55:28.821Z,2.10
2023-03-18T13:57:58.892Z,2.30
2023-03-18T14:00:31.037Z,2.55
2023-03-18T14:03:19.385Z,2.30
2023-03-18T14:05:47.195Z,2.40
2023-03-18T14:08:34.033Z,2.50
2023-03-18T14:11:28.658Z,2.40
2023-03-18T14:13:55.858Z,2.20
2023-03-18T14:16:23.997Z,2.97
2023-03-18T14:19:10.106Z,1.95
2023-03-18T14:21:44.514Z,2.42
2023-03-18T14:24:23.154Z,1.92
2023-03-18T14:26:59.139Z,2.05
2023-03-18T14:29:30.814Z,2.17
2023-03-18T14:34:48.773Z,2.00
2023-03-18T14:37:19.326Z,2.10
2023-03-18T14:39:47.925Z,2.38
2023-03-18T14:42:23.880Z,2.22
2023-03-18T14:44:53.443Z,1.50
2023-03-18T14:47:37.571Z,1.13
2023-03-18T14:50:15.311Z,1.23
2023-03-18T14:52:43.819Z,1.10
2023-03-18T14:55:34.169Z,1.52
2023-03-18T14:58:02.022Z,1.05
2023-03-18T15:00:31.307Z,1.40
2023-03-18T15:03:04.644Z,1.42
2023-03-18T15:05:36.748Z,1.25
2023-03-18T15:08:11.653Z,1.27
2023-03-18T15:10:38.892Z,1.65
2023-03-18T15:13:15.169Z,1.75
2023-03-18T15:15:42.702Z,2.13
2023-03-18T15:18:24.972Z,1.73
2023-03-18T15:20:54.488Z,1.90
2023-03-18T15:23:24.363Z,1.77
2023-03-18T15:25:51.470Z,2.00
2023-03-18T15:28:19.633Z,2.08
2023-03-18T15:30:55.697Z,2.83
2023-03-18T15:33:24.256Z,2.25
2023-03-18T15:35:55.563Z,2.28
2023-03-18T15:38:26.757Z,2.85
2023-03-18T15:41:12.269Z,2.30
2023-03-18T15:43:43.907Z,1.90
2023-03-18T15:46:25.696Z,2.10
2023-03-18T15:48:56.988Z,1.98
2023-03-18T15:51:30.039Z,2.35
2023-03-18T15:53:59.070Z,2.20
2023-03-18T15:56:29.496Z,2.08
2023-03-18T15:59:16.156Z,2.50
2023-03-18T16:01:43.380Z,2.55
2023-03-18T16:04:12.543Z,2.65
2023-03-18T16:06:40.356Z,3.05
2023-03-18T16:09:24.054Z,2.75
2023-03-18T16:11:57.454Z,2.70
2023-03-18T16:14:26.473Z,2.13
2023-03-18T16:16:53.636Z,2.75
2023-03-18T16:19:27.569Z,2.63
2023-03-18T16:21:56.235Z,2.60
2023-03-18T16:24:23.721Z,2.85
2023-03-18T16:26:52.400Z,2.78
2023-03-18T16:29:24.324Z,2.90
2023-03-18T16:31:51.598Z,2.40
2023-03-18T16:34:21.729Z,2.28
2023-03-18T16:36:50.605Z,2.70
2023-03-18T16:39:24.305Z,2.60
2023-03-18T16:41:52.369Z,2.95
2023-03-18T16:44:21.172Z,2.63
2023-03-18T16:46:54.202Z,2.90
2023-03-18T16:49:29.910Z,1.92
2023-03-18T16:51:57.720Z,2.20
2023-03-18T16:54:26.365Z,2.17
2023-03-18T16:56:55.858Z,1.80
2023-03-18T16:59:23.087Z,3.65
2023-03-18T17:01:50.576Z,2.35
2023-03-18T17:04:31.317Z,2.25
2023-03-18T17:06:59.701Z,1.98
2023-03-18T17:09:27.358Z,2.22
2023-03-18T17:11:56.968Z,2.45
2023-03-18T17:14:23.998Z,1.75
2023-03-18T17:16:51.140Z,2.20
2023-03-18T17:19:18.511Z,2.10
2023-03-18T17:21:45.592Z,2.40
2023-03-18T17:24:12.614Z,2.80
2023-03-18T17:26:39.747Z,2.92
2023-03-18T17:29:08.425Z,2.40
2023-03-18T17:31:35.475Z,3.08
2023-03-18T17:34:02.634Z,3.25
2023-03-18T17:36:32.789Z,3.17
2023-03-18T17:39:00.161Z,3.00
2023-03-18T17:41:27.274Z,3.08
2023-03-18T17:43:54.351Z,3.45
2023-03-18T17:46:21.413Z,4.15
2023-03-18T17:48:48.557Z,3.30
2023-03-18T17:51:20.657Z,3.50
2023-03-18T17:53:51.278Z,3.45
2023-03-18T17:56:19.415Z,3.65
2023-03-18T17:58:47.494Z,4.43
2023-03-18T18:01:16.471Z,38.40
2023-03-18T18:03:43.737Z,20.98
2023-03-18T18:06:18.460Z,15.45
2023-03-18T18:08:45.526Z,9.75
2023-03-18T18:11:17.622Z,7.60
2023-03-18T18:13:44.679Z,6.43
2023-03-18T18:16:12.205Z,7.50
2023-03-18T18:18:40.012Z,7.97
2023-03-18T18:21:11.701Z,9.15
2023-03-18T18:23:40.153Z,9.95
2023-03-18T18:26:08.685Z,11.52
2023-03-18T18:28:36.772Z,9.38
2023-03-18T18:31:05.411Z,13.25
2023-03-18T18:33:32.889Z,12.23
2023-03-18T18:36:00.478Z,18.77
2023-03-18T18:38:28.483Z,17.50
2023-03-18T18:40:56.413Z,13.70
2023-03-18T18:43:24.042Z,10.75
2023-03-18T18:45:52.820Z,10.55
2023-03-18T18:48:23.507Z,11.68
2023-03-18T18:50:51.381Z,10.98
2023-03-18T18:53:22.259Z,9.93
2023-03-18T18:55:49.457Z,10.05
2023-03-18T18:58:20.332Z,8.57
2023-03-18T19:00:49.621Z,9.35
2023-03-18T19:03:18.578Z,9.23
2023-03-18T19:05:46.362Z,9.35
2023-03-18T19:08:29.687Z,9.60
2023-03-18T19:11:01.279Z,10.15
2023-03-18T19:13:29.527Z,11.30
2023-03-18T19:15:58.104Z,12.00
2023-03-18T19:18:26.111Z,11.55
2023-03-18T19:20:54.075Z,11.10
2023-03-18T19:23:26.751Z,11.20
2023-03-18T19:25:54.843Z,11.23
2023-03-18T19:28:31.435Z,10.45
2023-03-18T19:30:58.845Z,10.60
2023-03-18T19:33:26.047Z,10.27
2023-03-18T19:35:53.136Z,10.07
2023-03-18T19:38:21.335Z,10.65
2023-03-18T19:40:49.759Z,10.73
2023-03-18T19:43:18.502Z,10.05
2023-03-18T19:45:50.669Z,9.98
2023-03-18T19:48:20.562Z,10.05
2023-03-18T19:50:47.801Z,9.75
2023-03-18T19:53:18.567Z,10.20
2023-03-18T19:55:46.423Z,8.70
2023-03-18T19:58:19.305Z,8.52
2023-03-18T20:00:46.711Z,10.75
2023-03-18T20:03:17.975Z,8.82
2023-03-18T20:05:45.283Z,8.65
2023-03-18T20:08:12.305Z,9.77
2023-03-18T20:10:40.928Z,9.05
2023-03-18T20:13:11.769Z,9.85
2023-03-18T20:15:38.859Z,8.80
2023-03-18T20:18:06.710Z,9.80
2023-03-18T20:20:34.381Z,9.40
2023-03-18T20:23:06.318Z,9.13
2023-03-18T20:28:04.602Z,7.85
2023-03-18T20:30:33.880Z,8.32
2023-03-18T20:33:04.049Z,7.97
2023-03-18T20:35:32.980Z,8.27
2023-03-18T20:38:04.799Z,8.60
2023-03-18T20:40:32.652Z,8.93
2023-03-18T20:42:59.913Z,9.43
2023-03-18T20:45:27.077Z,9.77
2023-03-18T20:47:54.163Z,9.30
2023-03-18T20:50:22.849Z,10.32
2023-03-18T20:52:50.646Z,10.18
2023-03-18T20:55:22.522Z,11.23
2023-03-18T20:57:50.097Z,10.55
2023-03-18T21:00:22.942Z,10.90
2023-03-18T21:02:51.755Z,11.52
2023-03-18T21:05:19.147Z,10.63
2023-03-18T21:07:47.561Z,10.43
2023-03-18T21:10:21.692Z,10.48
2023-03-18T21:12:49.160Z,10.48
2023-03-18T21:15:23.523Z,12.60
2023-03-18T21:17:50.608Z,12.18
2023-03-18T21:20:22.399Z,12.93
2023-03-18T21:22:51.244Z,11.65
2023-03-18T21:25:19.406Z,11.23
2023-03-18T21:27:47.155Z,10.63
2023-03-18T21:30:15.385Z,11.60
2023-03-18T21:32:44.522Z,11.40
2023-03-18T21:35:17.121Z,10.95
2023-03-18T21:37:44.328Z,13.73
2023-03-18T21:40:16.058Z,15.27
2023-03-18T21:42:43.671Z,12.20
2023-03-18T21:45:18.667Z,14.75
2023-03-18T21:47:45.961Z,14.30
2023-03-18T21:50:23.981Z,13.85
2023-03-18T21:52:51.295Z,11.82
2023-03-18T21:55:18.752Z,11.48
2023-03-18T21:57:48.722Z,12.85
2023-03-18T22:00:17.560Z,11.77
2023-03-18T22:02:44.640Z,12.18
2023-03-18T22:05:12.874Z,11.70
2023-03-18T22:07:39.952Z,10.77
2023-03-18T22:10:07.239Z,11.50
2023-03-18T22:12:34.905Z,10.30
2023-03-18T22:15:01.959Z,10.20
2023-03-18T22:17:28.996Z,9.75
2023-03-18T22:19:57.016Z,9.95
2023-03-18T22:22:25.620Z,10.80
2023-03-18T22:24:52.741Z,9.55
2023-03-18T22:27:24.168Z,9.90
2023-03-18T22:29:51.601Z,9.80
2023-03-18T22:32:29.619Z,9.90
2023-03-18T22:34:56.720Z,10.63
2023-03-18T22:37:24.550Z,9.40
2023-03-18T22:39:51.705Z,9.50
2023-03-18T22:42:20.636Z,10.27
2023-03-18T22:44:47.731Z,12.98
2023-03-18T22:47:19.516Z,10.07
2023-03-18T22:49:46.901Z,8.75
2023-03-18T22:52:20.292Z,9.73
2023-03-18T22:54:47.966Z,10.82
2023-03-18T22:57:18.280Z,10.05
2023-03-18T22:59:45.702Z,9.13
2023-03-18T23:02:18.315Z,9.18
2023-03-18T23:04:46.037Z,9.65
2023-03-18T23:07:21.337Z,8.50
2023-03-18T23:09:56.474Z,9.43
2023-03-18T23:12:25.718Z,9.68
2023-03-18T23:14:53.237Z,9.43
2023-03-18T23:17:21.918Z,10.55
2023-03-18T23:19:49.378Z,10.57
2023-03-18T23:22:18.691Z,9.35
2023-03-18T23:24:45.886Z,9.55
2023-03-18T23:27:12.920Z,8.68
2023-03-18T23:29:39.935Z,9.38
2023-03-18T23:32:07.233Z,9.25
2023-03-18T23:34:34.301Z,9.45
2023-03-18T23:37:01.389Z,10.27
2023-03-18T23:39:28.703Z,8.95
2023-03-18T23:41:55.935Z,10.98
2023-03-18T23:44:23.197Z,20.08
2023-03-18T23:46:50.268Z,10.38
2023-03-18T23:49:18.130Z,9.32
2023-03-18T23:51:45.258Z,8.70
2023-03-18T23:54:12.356Z,9.27
2023-03-18T23:56:39.373Z,8.82
2023-03-18T23:59:06.386Z,8.90
